< Typhoon 195501 1955 Season Typhoon 195503 >
Typhoon 195502 (NO-NAME)
General InformationTrack Information on Google Maps || Disaster Info.ResourceGoogle EarthGE AnimationAtom FeedGeoJSON
Detalied Best Track (Time Zone = UTC)
Year Month Day Hour Lat. Long. Pressure (hPa) Wind (kt) Class Image Chart
1955 2 24 00 8.3 130.8 1000 0 2 -- Chart
1955 2 24 06 8.3 130.6 995 0 9 -- Chart
1955 2 24 12 8.3 130.5 1000 0 9 -- Chart
1955 2 24 18 8.3 130.4 1000 0 9 -- Chart
1955 2 25 00 8.3 130.2 1000 0 9 -- Chart
1955 2 25 06 8.4 129.9 1000 0 9 -- Chart
1955 2 25 12 8.6 129.5 1000 0 9 -- Chart
1955 2 25 18 8.9 129.3 1000 0 9 -- Chart
1955 2 26 00 9.3 129.1 1000 0 9 -- Chart
1955 2 26 06 10.0 128.7 1000 0 2 -- Chart
1955 2 26 12 10.5 128.3 1000 0 2 -- Chart
1955 2 26 18 11.2 127.9 1000 0 2 -- Chart
1955 2 27 00 11.7 127.5 1002 0 2 -- Chart
1955 2 27 06 12.4 127.3 1002 0 2 -- Chart
1955 2 27 12 12.5 127.4 1002 0 2 -- Chart
1955 2 27 18 12.6 127.7 1002 0 2 -- Chart
1955 2 28 00 12.8 127.9 1002 0 2 -- Chart
1955 2 28 06 12.9 128.3 1000 0 9 -- Chart
1955 2 28 12 13.0 128.6 1000 0 9 -- Chart
1955 2 28 18 13.0 129.0 1002 0 9 -- Chart
Japan Meteorological Agency Best Track Data | Correction Date : 1989-06-01
< Typhoon 195501 1955 Season Typhoon 195503 >

Help